DAL2292 KTVC-KDTW
Flight info
| Callsign | DAL2292 |
|---|---|
| Flight time | 0h 35m |
| Altitude | 25000 |
| Route | LEFSA LAYKS2 |
| Aircraft | A319/M-SDE3FGHIRWY/LB1 |
Departure
| Time | 2026-04-23 01:33 |
|---|---|
| Airport | Cherry Capital Airport (KTVC) |
Arrival
| Time | 2026-04-23 02:08 |
|---|---|
| Airport | Detroit Metropolitan Wayne County Airport (KDTW) |
| Time | Latitude | Longitude | Altitude | Speed | Heading |
|---|---|---|---|---|---|
| 2026-04-23 01:08 | 44.73775 | -85.57898 | 627 ft | 0 kts | 271° |
| 2026-04-23 01:24 | 44.73774 | -85.57874 | 636 ft | 4 kts | 270° |
| 2026-04-23 01:25 | 44.73773 | -85.57837 | 630 ft | 4 kts | 284° |
| 2026-04-23 01:25 | 44.73765 | -85.57814 | 638 ft | 3 kts | 0° |
| 2026-04-23 01:25 | 44.73758 | -85.57814 | 635 ft | 0 kts | 4° |
| 2026-04-23 01:28 | 44.73761 | -85.57814 | 636 ft | 2 kts | 4° |
| 2026-04-23 01:28 | 44.73808 | -85.57809 | 627 ft | 11 kts | 4° |
| 2026-04-23 01:29 | 44.73889 | -85.57802 | 630 ft | 12 kts | 3° |
| 2026-04-23 01:29 | 44.73950 | -85.57849 | 632 ft | 12 kts | 276° |
| 2026-04-23 01:29 | 44.73957 | -85.58003 | 631 ft | 20 kts | 273° |
| 2026-04-23 01:29 | 44.73970 | -85.58203 | 631 ft | 21 kts | 276° |
| 2026-04-23 01:30 | 44.73980 | -85.58414 | 629 ft | 22 kts | 272° |
| 2026-04-23 01:30 | 44.73988 | -85.58631 | 630 ft | 22 kts | 273° |
| 2026-04-23 01:30 | 44.73996 | -85.58842 | 636 ft | 22 kts | 274° |
| 2026-04-23 01:30 | 44.74008 | -85.59033 | 628 ft | 11 kts | 276° |
| 2026-04-23 01:31 | 44.74025 | -85.59083 | 636 ft | 4 kts | 342° |
| 2026-04-23 01:31 | 44.74030 | -85.59082 | 635 ft | 0 kts | 0° |
| 2026-04-23 01:32 | 44.74040 | -85.59082 | 629 ft | 3 kts | 1° |
| 2026-04-23 01:32 | 44.74071 | -85.59080 | 630 ft | 5 kts | 3° |
| 2026-04-23 01:32 | 44.74105 | -85.59075 | 631 ft | 5 kts | 15° |
| 2026-04-23 01:32 | 44.74117 | -85.59027 | 631 ft | 6 kts | 94° |
| 2026-04-23 01:33 | 44.74110 | -85.58907 | 636 ft | 35 kts | 94° |
| 2026-04-23 01:33 | 44.74077 | -85.58160 | 630 ft | 114 kts | 94° |
| 2026-04-23 01:33 | 44.74013 | -85.56765 | 795 ft | 156 kts | 94° |
| 2026-04-23 01:33 | 44.73949 | -85.55313 | 1643 ft | 143 kts | 94° |
| 2026-04-23 01:34 | 44.73905 | -85.53960 | 2398 ft | 139 kts | 93° |
| 2026-04-23 01:34 | 44.73876 | -85.52509 | 2766 ft | 161 kts | 93° |
| 2026-04-23 01:34 | 44.73847 | -85.50823 | 3152 ft | 184 kts | 93° |
| 2026-04-23 01:34 | 44.73808 | -85.48907 | 3514 ft | 209 kts | 92° |
| 2026-04-23 01:35 | 44.73757 | -85.46746 | 3982 ft | 233 kts | 92° |
| 2026-04-23 01:35 | 44.73683 | -85.44346 | 4537 ft | 257 kts | 92° |
| 2026-04-23 01:35 | 44.73470 | -85.41794 | 5355 ft | 269 kts | 105° |
| 2026-04-23 01:35 | 44.72546 | -85.39465 | 6249 ft | 280 kts | 132° |
| 2026-04-23 01:36 | 44.71008 | -85.37718 | 7149 ft | 288 kts | 143° |
| 2026-04-23 01:36 | 44.69365 | -85.36055 | 8060 ft | 294 kts | 144° |
| 2026-04-23 01:36 | 44.67682 | -85.34370 | 8972 ft | 301 kts | 144° |
| 2026-04-23 01:36 | 44.65956 | -85.32650 | 9866 ft | 307 kts | 144° |
| 2026-04-23 01:37 | 44.64172 | -85.30861 | 10415 ft | 327 kts | 144° |
| 2026-04-23 01:37 | 44.62271 | -85.28940 | 10933 ft | 343 kts | 144° |
| 2026-04-23 01:37 | 44.60314 | -85.26956 | 11717 ft | 351 kts | 144° |
| 2026-04-23 01:37 | 44.58319 | -85.24941 | 12528 ft | 357 kts | 144° |
| 2026-04-23 01:38 | 44.56980 | -85.23585 | 13062 ft | 360 kts | 144° |
| 2026-04-23 01:38 | 44.54927 | -85.21510 | 13863 ft | 366 kts | 144° |
| 2026-04-23 01:38 | 44.52845 | -85.19414 | 14570 ft | 372 kts | 144° |
| 2026-04-23 01:38 | 44.50735 | -85.17289 | 15298 ft | 375 kts | 144° |
| 2026-04-23 01:39 | 44.48602 | -85.15146 | 16062 ft | 379 kts | 144° |
| 2026-04-23 01:39 | 44.46454 | -85.12992 | 16808 ft | 382 kts | 145° |
| 2026-04-23 01:39 | 44.44279 | -85.10814 | 17553 ft | 386 kts | 145° |
| 2026-04-23 01:39 | 44.42087 | -85.08621 | 18283 ft | 389 kts | 145° |
| 2026-04-23 01:40 | 44.39868 | -85.06404 | 18905 ft | 393 kts | 145° |
| 2026-04-23 01:40 | 44.37633 | -85.04163 | 19518 ft | 398 kts | 144° |
| 2026-04-23 01:40 | 44.35369 | -85.01893 | 20128 ft | 402 kts | 144° |
| 2026-04-23 01:40 | 44.33081 | -84.99606 | 20721 ft | 407 kts | 145° |
| 2026-04-23 01:41 | 44.30764 | -84.97297 | 21287 ft | 412 kts | 144° |
| 2026-04-23 01:41 | 44.28423 | -84.94958 | 21887 ft | 416 kts | 144° |
| 2026-04-23 01:41 | 44.26052 | -84.92592 | 22476 ft | 421 kts | 144° |
| 2026-04-23 01:41 | 44.23656 | -84.90210 | 23042 ft | 426 kts | 144° |
| 2026-04-23 01:42 | 44.21232 | -84.87794 | 23602 ft | 431 kts | 144° |
| 2026-04-23 01:42 | 44.18784 | -84.85364 | 24083 ft | 435 kts | 144° |
| 2026-04-23 01:42 | 44.16304 | -84.82912 | 24566 ft | 439 kts | 144° |
| 2026-04-23 01:42 | 44.13838 | -84.80472 | 24935 ft | 442 kts | 144° |
| 2026-04-23 01:43 | 44.11295 | -84.77958 | 25045 ft | 440 kts | 144° |
| 2026-04-23 01:43 | 44.09039 | -84.75310 | 25061 ft | 422 kts | 134° |
| 2026-04-23 01:43 | 44.07016 | -84.72431 | 25065 ft | 413 kts | 133° |
| 2026-04-23 01:43 | 44.04964 | -84.69517 | 25072 ft | 431 kts | 133° |
| 2026-04-23 01:44 | 44.02822 | -84.66493 | 25092 ft | 443 kts | 133° |
| 2026-04-23 01:44 | 44.00646 | -84.63438 | 25070 ft | 447 kts | 134° |
| 2026-04-23 01:44 | 43.98452 | -84.60364 | 25073 ft | 448 kts | 134° |
| 2026-04-23 01:44 | 43.96254 | -84.57291 | 25072 ft | 449 kts | 134° |
| 2026-04-23 01:45 | 43.94056 | -84.54219 | 25072 ft | 449 kts | 134° |
| 2026-04-23 01:45 | 43.91859 | -84.51141 | 25072 ft | 449 kts | 134° |
| 2026-04-23 01:45 | 43.89667 | -84.48067 | 25072 ft | 449 kts | 134° |
| 2026-04-23 01:45 | 43.87470 | -84.44987 | 25072 ft | 448 kts | 133° |
| 2026-04-23 01:46 | 43.85277 | -84.41917 | 25072 ft | 448 kts | 133° |
| 2026-04-23 01:46 | 43.83084 | -84.38852 | 25071 ft | 448 kts | 133° |
| 2026-04-23 01:46 | 43.80889 | -84.35787 | 25070 ft | 448 kts | 133° |
| 2026-04-23 01:46 | 43.78671 | -84.32766 | 25067 ft | 448 kts | 138° |
| 2026-04-23 01:47 | 43.76150 | -84.30232 | 25068 ft | 448 kts | 150° |
| 2026-04-23 01:47 | 43.73433 | -84.28106 | 25077 ft | 448 kts | 151° |
| 2026-04-23 01:47 | 43.70717 | -84.25982 | 25073 ft | 449 kts | 150° |
| 2026-04-23 01:47 | 43.68000 | -84.23851 | 25055 ft | 449 kts | 150° |
| 2026-04-23 01:48 | 43.65281 | -84.21714 | 25051 ft | 450 kts | 150° |
| 2026-04-23 01:48 | 43.62561 | -84.19576 | 25051 ft | 450 kts | 150° |
| 2026-04-23 01:48 | 43.59843 | -84.17443 | 25053 ft | 450 kts | 150° |
| 2026-04-23 01:48 | 43.57120 | -84.15307 | 25050 ft | 450 kts | 150° |
| 2026-04-23 01:49 | 43.54397 | -84.13171 | 24835 ft | 450 kts | 150° |
| 2026-04-23 01:49 | 43.51692 | -84.11046 | 24500 ft | 446 kts | 150° |
| 2026-04-23 01:49 | 43.48997 | -84.08931 | 24265 ft | 445 kts | 150° |
| 2026-04-23 01:49 | 43.46309 | -84.06829 | 23942 ft | 444 kts | 150° |
| 2026-04-23 01:50 | 43.43624 | -84.04735 | 23332 ft | 443 kts | 150° |
| 2026-04-23 01:50 | 43.40959 | -84.02632 | 22811 ft | 439 kts | 149° |
| 2026-04-23 01:50 | 43.38377 | -84.00473 | 22292 ft | 433 kts | 147° |
| 2026-04-23 01:50 | 43.35844 | -83.98264 | 21696 ft | 427 kts | 147° |
| 2026-04-23 01:51 | 43.33361 | -83.96058 | 21079 ft | 423 kts | 146° |
| 2026-04-23 01:51 | 43.30940 | -83.93901 | 20532 ft | 417 kts | 147° |
| 2026-04-23 01:51 | 43.28525 | -83.91765 | 20000 ft | 411 kts | 147° |
| 2026-04-23 01:51 | 43.26127 | -83.89669 | 19465 ft | 406 kts | 147° |
| 2026-04-23 01:52 | 43.23748 | -83.87612 | 18953 ft | 403 kts | 147° |
| 2026-04-23 01:52 | 43.21372 | -83.85569 | 18439 ft | 402 kts | 148° |
| 2026-04-23 01:52 | 43.19033 | -83.83560 | 17938 ft | 392 kts | 148° |
| 2026-04-23 01:52 | 43.16735 | -83.81584 | 17310 ft | 388 kts | 148° |
| 2026-04-23 01:53 | 43.14445 | -83.79621 | 16821 ft | 386 kts | 148° |
| 2026-04-23 01:53 | 43.12168 | -83.77684 | 16317 ft | 384 kts | 148° |
| 2026-04-23 01:53 | 43.09906 | -83.75763 | 15813 ft | 382 kts | 148° |
| 2026-04-23 01:53 | 43.07653 | -83.73853 | 15326 ft | 380 kts | 148° |
| 2026-04-23 01:54 | 43.05413 | -83.71957 | 14837 ft | 378 kts | 148° |
| 2026-04-23 01:54 | 43.03182 | -83.70069 | 14353 ft | 376 kts | 148° |
| 2026-04-23 01:54 | 43.00973 | -83.68200 | 13861 ft | 370 kts | 147° |
| 2026-04-23 01:54 | 42.98798 | -83.66358 | 13351 ft | 365 kts | 147° |
| 2026-04-23 01:55 | 42.96650 | -83.64545 | 12877 ft | 362 kts | 147° |
| 2026-04-23 01:55 | 42.94510 | -83.62744 | 12456 ft | 359 kts | 147° |
| 2026-04-23 01:55 | 42.92425 | -83.60989 | 12324 ft | 346 kts | 147° |
| 2026-04-23 01:55 | 42.90413 | -83.59294 | 12143 ft | 336 kts | 147° |
| 2026-04-23 01:56 | 42.88442 | -83.57633 | 11775 ft | 331 kts | 147° |
| 2026-04-23 01:56 | 42.86489 | -83.55988 | 11270 ft | 328 kts | 147° |
| 2026-04-23 01:56 | 42.84556 | -83.54359 | 10795 ft | 326 kts | 147° |
| 2026-04-23 01:56 | 42.82661 | -83.52759 | 10507 ft | 315 kts | 147° |
| 2026-04-23 01:57 | 42.80840 | -83.51217 | 9990 ft | 311 kts | 147° |
| 2026-04-23 01:57 | 42.78982 | -83.49655 | 9377 ft | 308 kts | 148° |
| 2026-04-23 01:57 | 42.77138 | -83.48200 | 8766 ft | 305 kts | 150° |
| 2026-04-23 01:57 | 42.75315 | -83.46828 | 8217 ft | 302 kts | 151° |
| 2026-04-23 01:58 | 42.73483 | -83.45471 | 7740 ft | 298 kts | 152° |
| 2026-04-23 01:58 | 42.71673 | -83.44129 | 7161 ft | 294 kts | 152° |
| 2026-04-23 01:58 | 42.69936 | -83.42837 | 7030 ft | 274 kts | 152° |
| 2026-04-23 01:58 | 42.68330 | -83.41631 | 6884 ft | 255 kts | 153° |
| 2026-04-23 01:59 | 42.66823 | -83.40440 | 6518 ft | 249 kts | 146° |
| 2026-04-23 01:59 | 42.65538 | -83.38890 | 6101 ft | 245 kts | 131° |
| 2026-04-23 01:59 | 42.64329 | -83.37292 | 6033 ft | 243 kts | 147° |
| 2026-04-23 01:59 | 42.62898 | -83.36087 | 5854 ft | 241 kts | 152° |
| 2026-04-23 02:00 | 42.61448 | -83.34957 | 5368 ft | 238 kts | 152° |
| 2026-04-23 02:00 | 42.60025 | -83.33855 | 5058 ft | 232 kts | 153° |
| 2026-04-23 02:00 | 42.58614 | -83.32764 | 5037 ft | 234 kts | 153° |
| 2026-04-23 02:00 | 42.57199 | -83.31671 | 5036 ft | 235 kts | 152° |
| 2026-04-23 02:01 | 42.55776 | -83.30565 | 5037 ft | 235 kts | 152° |
| 2026-04-23 02:01 | 42.54360 | -83.29469 | 4948 ft | 233 kts | 152° |
| 2026-04-23 02:01 | 42.52958 | -83.28388 | 4633 ft | 231 kts | 153° |
| 2026-04-23 02:01 | 42.51587 | -83.27327 | 4328 ft | 229 kts | 152° |
| 2026-04-23 02:02 | 42.50210 | -83.26271 | 4092 ft | 225 kts | 152° |
| 2026-04-23 02:02 | 42.48845 | -83.25240 | 4035 ft | 224 kts | 153° |
| 2026-04-23 02:02 | 42.47482 | -83.24207 | 4036 ft | 224 kts | 152° |
| 2026-04-23 02:02 | 42.46121 | -83.23173 | 4037 ft | 225 kts | 153° |
| 2026-04-23 02:03 | 42.44723 | -83.22251 | 4034 ft | 223 kts | 165° |
| 2026-04-23 02:03 | 42.43202 | -83.22003 | 4036 ft | 220 kts | 185° |
| 2026-04-23 02:03 | 42.41733 | -83.22510 | 4032 ft | 219 kts | 206° |
| 2026-04-23 02:03 | 42.40392 | -83.23486 | 4032 ft | 218 kts | 210° |
| 2026-04-23 02:04 | 42.39067 | -83.24474 | 4027 ft | 214 kts | 210° |
| 2026-04-23 02:04 | 42.37805 | -83.25410 | 3946 ft | 203 kts | 210° |
| 2026-04-23 02:04 | 42.36583 | -83.26315 | 3754 ft | 197 kts | 210° |
| 2026-04-23 02:04 | 42.35382 | -83.27205 | 3490 ft | 196 kts | 209° |
| 2026-04-23 02:05 | 42.34199 | -83.28080 | 3224 ft | 191 kts | 208° |
| 2026-04-23 02:05 | 42.33049 | -83.28931 | 2982 ft | 186 kts | 207° |
| 2026-04-23 02:05 | 42.31932 | -83.29757 | 2747 ft | 181 kts | 206° |
| 2026-04-23 02:05 | 42.30836 | -83.30567 | 2506 ft | 178 kts | 206° |
| 2026-04-23 02:06 | 42.29779 | -83.31349 | 2274 ft | 168 kts | 204° |
| 2026-04-23 02:06 | 42.28809 | -83.32067 | 2058 ft | 150 kts | 205° |
| 2026-04-23 02:06 | 42.27923 | -83.32720 | 1867 ft | 141 kts | 204° |
| 2026-04-23 02:06 | 42.27063 | -83.33354 | 1681 ft | 140 kts | 204° |
| 2026-04-23 02:07 | 42.26216 | -83.33979 | 1481 ft | 138 kts | 205° |
| 2026-04-23 02:07 | 42.25375 | -83.34598 | 1315 ft | 138 kts | 203° |
| 2026-04-23 02:07 | 42.24539 | -83.35216 | 1128 ft | 136 kts | 207° |
| 2026-04-23 02:07 | 42.23711 | -83.35823 | 956 ft | 135 kts | 206° |
| 2026-04-23 02:08 | 42.22879 | -83.36439 | 783 ft | 137 kts | 205° |
| 2026-04-23 02:08 | 42.22044 | -83.37056 | 652 ft | 134 kts | 205° |
| 2026-04-23 02:08 | 42.21346 | -83.37569 | 647 ft | 91 kts | 208° |
| 2026-04-23 02:08 | 42.20944 | -83.37866 | 646 ft | 41 kts | 208° |
| 2026-04-23 02:09 | 42.20771 | -83.37982 | 647 ft | 27 kts | 201° |
| 2026-04-23 02:09 | 42.20622 | -83.37989 | 647 ft | 12 kts | 164° |
| 2026-04-23 02:09 | 42.20538 | -83.37957 | 647 ft | 14 kts | 167° |
| 2026-04-23 02:09 | 42.20430 | -83.37993 | 648 ft | 18 kts | 208° |
| 2026-04-23 02:10 | 42.20315 | -83.38077 | 648 ft | 19 kts | 208° |
| 2026-04-23 02:10 | 42.20195 | -83.38165 | 647 ft | 20 kts | 209° |
| 2026-04-23 02:10 | 42.20119 | -83.38130 | 649 ft | 14 kts | 117° |
| 2026-04-23 02:10 | 42.20053 | -83.38000 | 648 ft | 19 kts | 147° |
| 2026-04-23 02:11 | 42.19934 | -83.37904 | 648 ft | 22 kts | 149° |
| 2026-04-23 02:11 | 42.19816 | -83.37768 | 649 ft | 23 kts | 120° |
| 2026-04-23 02:11 | 42.19738 | -83.37575 | 648 ft | 24 kts | 118° |
| 2026-04-23 02:11 | 42.19657 | -83.37378 | 648 ft | 24 kts | 119° |
| 2026-04-23 02:12 | 42.19588 | -83.37171 | 649 ft | 25 kts | 97° |
| 2026-04-23 02:12 | 42.19655 | -83.36970 | 649 ft | 25 kts | 37° |
| 2026-04-23 02:12 | 42.19803 | -83.36858 | 649 ft | 25 kts | 29° |
| 2026-04-23 02:12 | 42.19946 | -83.36753 | 649 ft | 22 kts | 28° |
| 2026-04-23 02:13 | 42.20073 | -83.36659 | 648 ft | 19 kts | 29° |
| 2026-04-23 02:13 | 42.20182 | -83.36579 | 648 ft | 13 kts | 28° |
| 2026-04-23 02:13 | 42.20209 | -83.36488 | 648 ft | 11 kts | 103° |
| 2026-04-23 02:13 | 42.20223 | -83.36412 | 648 ft | 8 kts | 33° |
| 2026-04-23 02:14 | 42.20281 | -83.36396 | 648 ft | 11 kts | 10° |
| 2026-04-23 02:14 | 42.20376 | -83.36334 | 649 ft | 19 kts | 29° |
| 2026-04-23 02:14 | 42.20485 | -83.36253 | 648 ft | 17 kts | 29° |
| 2026-04-23 02:14 | 42.20584 | -83.36180 | 648 ft | 17 kts | 29° |
| 2026-04-23 02:15 | 42.20817 | -83.36008 | 648 ft | 18 kts | 28° |
| 2026-04-23 02:15 | 42.20917 | -83.35935 | 648 ft | 15 kts | 28° |
| 2026-04-23 02:15 | 42.21004 | -83.35871 | 648 ft | 13 kts | 27° |
| 2026-04-23 02:16 | 42.21080 | -83.35815 | 648 ft | 11 kts | 29° |
| 2026-04-23 02:16 | 42.21129 | -83.35778 | 648 ft | 4 kts | 28° |
| 2026-04-23 02:16 | 42.21150 | -83.35763 | 648 ft | 3 kts | 29° |
| 2026-04-23 02:16 | 42.21170 | -83.35747 | 649 ft | 4 kts | 30° |
| 2026-04-23 02:17 | 42.21179 | -83.35701 | 648 ft | 7 kts | 99° |
| 2026-04-23 02:17 | 42.21156 | -83.35644 | 648 ft | 4 kts | 119° |
| 2026-04-23 02:17 | 42.21152 | -83.35633 | 648 ft | 0 kts | 119° |